sensor_id;sensor_type;location;lat;lon;timestamp;P1;durP1;ratioP1;P2;durP2;ratioP2
47225;SDS011;32965;64.142;-21.912;2022-09-09T00:00:00;2.85;;;1.15;;
47225;SDS011;32965;64.142;-21.912;2022-09-09T00:03:24;2.20;;;1.33;;
47225;SDS011;32965;64.142;-21.912;2022-09-09T00:09:47;3.90;;;1.10;;
47225;SDS011;32965;64.142;-21.912;2022-09-09T00:16:54;2.42;;;1.05;;
47225;SDS011;32965;64.142;-21.912;2022-09-09T00:31:38;3.92;;;1.02;;
47225;SDS011;32965;64.142;-21.912;2022-09-09T00:35:26;3.78;;;1.00;;
47225;SDS011;32965;64.142;-21.912;2022-09-09T00:50:59;2.65;;;0.68;;
47225;SDS011;32965;64.142;-21.912;2022-09-09T00:54:26;3.88;;;0.52;;
47225;SDS011;32965;64.142;-21.912;2022-09-09T01:01:37;1.48;;;0.73;;
47225;SDS011;32965;64.142;-21.912;2022-09-09T01:07:42;1.25;;;0.50;;
47225;SDS011;32965;64.142;-21.912;2022-09-09T01:18:39;1.98;;;0.50;;
47225;SDS011;32965;64.142;-21.912;2022-09-09T01:24:13;2.72;;;0.52;;
47225;SDS011;32965;64.142;-21.912;2022-09-09T01:32:56;0.90;;;0.30;;
47225;SDS011;32965;64.142;-21.912;2022-09-09T01:35:51;3.05;;;0.75;;
47225;SDS011;32965;64.142;-21.912;2022-09-09T01:43:13;0.88;;;0.40;;
47225;SDS011;32965;64.142;-21.912;2022-09-09T01:49:02;0.88;;;0.30;;
47225;SDS011;32965;64.142;-21.912;2022-09-09T02:03:24;2.83;;;0.35;;
47225;SDS011;32965;64.142;-21.912;2022-09-09T02:06:59;2.60;;;0.70;;
47225;SDS011;32965;64.142;-21.912;2022-09-09T02:10:28;0.60;;;0.10;;
47225;SDS011;32965;64.142;-21.912;2022-09-09T02:13:45;0.90;;;0.25;;
47225;SDS011;32965;64.142;-21.912;2022-09-09T02:17:19;0.80;;;0.30;;
47225;SDS011;32965;64.142;-21.912;2022-09-09T02:24:29;0.50;;;0.20;;
47225;SDS011;32965;64.142;-21.912;2022-09-09T02:28:07;0.20;;;0.15;;
47225;SDS011;32965;64.142;-21.912;2022-09-09T02:36:37;6.28;;;0.43;;
47225;SDS011;32965;64.142;-21.912;2022-09-09T02:40:27;1.08;;;0.30;;
47225;SDS011;32965;64.142;-21.912;2022-09-09T02:43:56;1.05;;;0.00;;
47225;SDS011;32965;64.142;-21.912;2022-09-09T02:47:38;1.35;;;0.10;;
47225;SDS011;32965;64.142;-21.912;2022-09-09T03:07:09;1.10;;;0.25;;
47225;SDS011;32965;64.142;-21.912;2022-09-09T03:10:20;1.08;;;0.00;;
47225;SDS011;32965;64.142;-21.912;2022-09-09T03:13:49;0.05;;;0.05;;
47225;SDS011;32965;64.142;-21.912;2022-09-09T03:16:33;0.35;;;0.10;;
47225;SDS011;32965;64.142;-21.912;2022-09-09T03:25:49;0.08;;;0.00;;
47225;SDS011;32965;64.142;-21.912;2022-09-09T03:36:24;1.63;;;0.00;;
47225;SDS011;32965;64.142;-21.912;2022-09-09T03:44:58;0.20;;;0.00;;
47225;SDS011;32965;64.142;-21.912;2022-09-09T03:48:24;0.47;;;0.10;;
47225;SDS011;32965;64.142;-21.912;2022-09-09T03:51:52;0.00;;;0.00;;
47225;SDS011;32965;64.142;-21.912;2022-09-09T03:55:16;0.00;;;0.00;;
47225;SDS011;32965;64.142;-21.912;2022-09-09T04:04:04;0.43;;;0.10;;
47225;SDS011;32965;64.142;-21.912;2022-09-09T04:10:55;0.00;;;0.00;;
47225;SDS011;32965;64.142;-21.912;2022-09-09T04:17:27;0.00;;;0.00;;
47225;SDS011;32965;64.142;-21.912;2022-09-09T04:20:13;0.00;;;0.00;;
47225;SDS011;32965;64.142;-21.912;2022-09-09T04:26:08;0.10;;;0.05;;
47225;SDS011;32965;64.142;-21.912;2022-09-09T04:39:37;0.40;;;0.00;;
47225;SDS011;32965;64.142;-21.912;2022-09-09T04:42:06;0.52;;;0.08;;
47225;SDS011;32965;64.142;-21.912;2022-09-09T05:01:40;0.10;;;0.03;;
47225;SDS011;32965;64.142;-21.912;2022-09-09T05:04:38;0.28;;;0.00;;
47225;SDS011;32965;64.142;-21.912;2022-09-09T05:08:10;0.03;;;0.00;;
47225;SDS011;32965;64.142;-21.912;2022-09-09T05:26:34;0.00;;;0.00;;
47225;SDS011;32965;64.142;-21.912;2022-09-09T05:29:39;0.00;;;0.00;;
47225;SDS011;32965;64.142;-21.912;2022-09-09T05:33:06;0.00;;;0.00;;
47225;SDS011;32965;64.142;-21.912;2022-09-09T05:36:34;0.00;;;0.00;;
47225;SDS011;32965;64.142;-21.912;2022-09-09T05:39:45;0.80;;;0.00;;
47225;SDS011;32965;64.142;-21.912;2022-09-09T05:46:06;0.05;;;0.03;;
47225;SDS011;32965;64.142;-21.912;2022-09-09T05:49:18;0.00;;;0.00;;
47225;SDS011;32965;64.142;-21.912;2022-09-09T05:59:58;0.17;;;0.00;;
47225;SDS011;32965;64.142;-21.912;2022-09-09T06:03:36;0.10;;;0.00;;
47225;SDS011;32965;64.142;-21.912;2022-09-09T06:07:15;0.15;;;0.00;;
47225;SDS011;32965;64.142;-21.912;2022-09-09T06:11:01;0.82;;;0.63;;
47225;SDS011;32965;64.142;-21.912;2022-09-09T06:15:14;0.50;;;0.10;;
47225;SDS011;32965;64.142;-21.912;2022-09-09T06:39:22;0.50;;;0.10;;
47225;SDS011;32965;64.142;-21.912;2022-09-09T06:55:25;0.30;;;0.00;;
47225;SDS011;32965;64.142;-21.912;2022-09-09T07:05:42;0.98;;;0.10;;
47225;SDS011;32965;64.142;-21.912;2022-09-09T07:08:31;0.43;;;0.10;;
47225;SDS011;32965;64.142;-21.912;2022-09-09T07:12:02;0.00;;;0.00;;
47225;SDS011;32965;64.142;-21.912;2022-09-09T07:15:33;1.13;;;0.10;;
47225;SDS011;32965;64.142;-21.912;2022-09-09T07:18:12;1.20;;;0.38;;
47225;SDS011;32965;64.142;-21.912;2022-09-09T07:25:20;0.88;;;0.57;;
47225;SDS011;32965;64.142;-21.912;2022-09-09T07:28:04;2.20;;;1.00;;
47225;SDS011;32965;64.142;-21.912;2022-09-09T07:38:30;1.70;;;0.90;;
47225;SDS011;32965;64.142;-21.912;2022-09-09T07:41:41;2.15;;;1.13;;
47225;SDS011;32965;64.142;-21.912;2022-09-09T07:45:08;2.00;;;1.02;;
47225;SDS011;32965;64.142;-21.912;2022-09-09T07:48:21;2.67;;;0.90;;
47225;SDS011;32965;64.142;-21.912;2022-09-09T07:51:52;3.97;;;1.13;;
47225;SDS011;32965;64.142;-21.912;2022-09-09T07:54:58;4.13;;;1.40;;
47225;SDS011;32965;64.142;-21.912;2022-09-09T07:57:34;2.65;;;1.83;;
47225;SDS011;32965;64.142;-21.912;2022-09-09T08:00:37;2.63;;;1.17;;
47225;SDS011;32965;64.142;-21.912;2022-09-09T08:03:43;2.75;;;1.35;;
47225;SDS011;32965;64.142;-21.912;2022-09-09T08:06:13;2.38;;;1.27;;
47225;SDS011;32965;64.142;-21.912;2022-09-09T08:08:39;4.63;;;1.50;;
47225;SDS011;32965;64.142;-21.912;2022-09-09T08:11:11;3.58;;;1.55;;
47225;SDS011;32965;64.142;-21.912;2022-09-09T08:13:58;3.50;;;1.70;;
47225;SDS011;32965;64.142;-21.912;2022-09-09T08:16:38;5.20;;;1.90;;
47225;SDS011;32965;64.142;-21.912;2022-09-09T08:19:10;4.25;;;1.58;;
47225;SDS011;32965;64.142;-21.912;2022-09-09T08:21:37;2.95;;;1.85;;
47225;SDS011;32965;64.142;-21.912;2022-09-09T08:24:30;4.07;;;1.90;;
47225;SDS011;32965;64.142;-21.912;2022-09-09T08:26:57;4.10;;;2.38;;
47225;SDS011;32965;64.142;-21.912;2022-09-09T08:29:24;4.55;;;2.13;;
47225;SDS011;32965;64.142;-21.912;2022-09-09T08:32:10;3.60;;;2.08;;
47225;SDS011;32965;64.142;-21.912;2022-09-09T08:34:37;3.20;;;1.60;;
47225;SDS011;32965;64.142;-21.912;2022-09-09T08:37:25;4.72;;;2.22;;
47225;SDS011;32965;64.142;-21.912;2022-09-09T08:39:51;3.88;;;2.22;;
47225;SDS011;32965;64.142;-21.912;2022-09-09T08:45:35;4.30;;;2.00;;
47225;SDS011;32965;64.142;-21.912;2022-09-09T08:51:24;3.22;;;2.10;;
47225;SDS011;32965;64.142;-21.912;2022-09-09T08:54:40;3.97;;;1.77;;
47225;SDS011;32965;64.142;-21.912;2022-09-09T09:08:25;7.97;;;2.50;;
47225;SDS011;32965;64.142;-21.912;2022-09-09T09:10:59;5.57;;;1.90;;
47225;SDS011;32965;64.142;-21.912;2022-09-09T09:16:23;8.40;;;1.45;;
47225;SDS011;32965;64.142;-21.912;2022-09-09T09:19:09;6.03;;;1.60;;
47225;SDS011;32965;64.142;-21.912;2022-09-09T09:22:30;3.80;;;1.08;;
47225;SDS011;32965;64.142;-21.912;2022-09-09T09:25:41;1.77;;;0.95;;
47225;SDS011;32965;64.142;-21.912;2022-09-09T09:32:02;3.28;;;1.25;;
47225;SDS011;32965;64.142;-21.912;2022-09-09T09:35:18;2.28;;;1.23;;
47225;SDS011;32965;64.142;-21.912;2022-09-09T09:38:29;4.25;;;1.27;;
47225;SDS011;32965;64.142;-21.912;2022-09-09T09:40:59;3.30;;;1.52;;
47225;SDS011;32965;64.142;-21.912;2022-09-09T09:44:28;2.35;;;1.30;;
47225;SDS011;32965;64.142;-21.912;2022-09-09T09:47:23;2.03;;;1.08;;
47225;SDS011;32965;64.142;-21.912;2022-09-09T09:49:57;1.77;;;1.00;;
47225;SDS011;32965;64.142;-21.912;2022-09-09T09:53:26;1.73;;;1.00;;
47225;SDS011;32965;64.142;-21.912;2022-09-09T09:56:15;2.50;;;1.20;;
47225;SDS011;32965;64.142;-21.912;2022-09-09T09:59:33;5.90;;;1.35;;
47225;SDS011;32965;64.142;-21.912;2022-09-09T10:02:38;4.03;;;1.83;;
47225;SDS011;32965;64.142;-21.912;2022-09-09T10:05:35;3.63;;;1.65;;
47225;SDS011;32965;64.142;-21.912;2022-09-09T10:08:45;2.90;;;1.30;;
47225;SDS011;32965;64.142;-21.912;2022-09-09T10:17:46;5.25;;;2.65;;
47225;SDS011;32965;64.142;-21.912;2022-09-09T10:21:12;5.32;;;2.55;;
47225;SDS011;32965;64.142;-21.912;2022-09-09T10:26:58;4.82;;;2.35;;
47225;SDS011;32965;64.142;-21.912;2022-09-09T10:30:12;3.92;;;2.15;;
47225;SDS011;32965;64.142;-21.912;2022-09-09T10:35:31;6.07;;;2.47;;
47225;SDS011;32965;64.142;-21.912;2022-09-09T10:38:18;4.32;;;2.85;;
47225;SDS011;32965;64.142;-21.912;2022-09-09T10:41:07;2.97;;;2.65;;
47225;SDS011;32965;64.142;-21.912;2022-09-09T10:47:26;3.47;;;2.30;;
47225;SDS011;32965;64.142;-21.912;2022-09-09T10:50:55;2.22;;;1.70;;
47225;SDS011;32965;64.142;-21.912;2022-09-09T11:01:05;4.05;;;2.60;;
47225;SDS011;32965;64.142;-21.912;2022-09-09T11:04:39;6.55;;;3.85;;
47225;SDS011;32965;64.142;-21.912;2022-09-09T11:08:20;5.28;;;3.30;;
47225;SDS011;32965;64.142;-21.912;2022-09-09T11:11:59;5.40;;;3.50;;
47225;SDS011;32965;64.142;-21.912;2022-09-09T11:15:39;6.05;;;3.55;;
47225;SDS011;32965;64.142;-21.912;2022-09-09T11:34:44;3.00;;;1.50;;
47225;SDS011;32965;64.142;-21.912;2022-09-09T11:41:09;5.18;;;2.42;;
47225;SDS011;32965;64.142;-21.912;2022-09-09T11:44:16;4.65;;;2.00;;
47225;SDS011;32965;64.142;-21.912;2022-09-09T11:48:02;6.32;;;2.05;;
47225;SDS011;32965;64.142;-21.912;2022-09-09T11:50:59;3.58;;;2.10;;
47225;SDS011;32965;64.142;-21.912;2022-09-09T11:54:30;5.70;;;3.13;;
47225;SDS011;32965;64.142;-21.912;2022-09-09T11:57:38;7.72;;;3.42;;
47225;SDS011;32965;64.142;-21.912;2022-09-09T12:00:37;4.38;;;2.75;;
47225;SDS011;32965;64.142;-21.912;2022-09-09T12:03:54;5.40;;;3.20;;
47225;SDS011;32965;64.142;-21.912;2022-09-09T12:10:30;4.75;;;3.53;;
47225;SDS011;32965;64.142;-21.912;2022-09-09T12:13:25;6.43;;;3.38;;
47225;SDS011;32965;64.142;-21.912;2022-09-09T12:16:26;4.97;;;3.50;;
47225;SDS011;32965;64.142;-21.912;2022-09-09T12:22:38;4.53;;;3.05;;
47225;SDS011;32965;64.142;-21.912;2022-09-09T12:32:00;4.95;;;1.73;;
47225;SDS011;32965;64.142;-21.912;2022-09-09T12:35:24;4.53;;;1.00;;
47225;SDS011;32965;64.142;-21.912;2022-09-09T12:38:18;4.85;;;1.30;;
47225;SDS011;32965;64.142;-21.912;2022-09-09T12:41:50;7.15;;;1.25;;
47225;SDS011;32965;64.142;-21.912;2022-09-09T12:44:32;3.20;;;0.95;;
47225;SDS011;32965;64.142;-21.912;2022-09-09T12:47:22;5.95;;;1.40;;
47225;SDS011;32965;64.142;-21.912;2022-09-09T12:54:12;4.45;;;1.40;;
47225;SDS011;32965;64.142;-21.912;2022-09-09T13:00:21;5.10;;;1.48;;
47225;SDS011;32965;64.142;-21.912;2022-09-09T13:02:57;5.90;;;1.70;;
47225;SDS011;32965;64.142;-21.912;2022-09-09T13:05:57;6.35;;;1.10;;
47225;SDS011;32965;64.142;-21.912;2022-09-09T13:09:20;1.65;;;1.00;;
47225;SDS011;32965;64.142;-21.912;2022-09-09T13:11:49;7.00;;;2.60;;
47225;SDS011;32965;64.142;-21.912;2022-09-09T13:14:23;5.68;;;2.40;;
47225;SDS011;32965;64.142;-21.912;2022-09-09T13:17:06;5.63;;;2.25;;
47225;SDS011;32965;64.142;-21.912;2022-09-09T13:19:43;7.35;;;1.83;;
47225;SDS011;32965;64.142;-21.912;2022-09-09T13:24:58;6.13;;;1.35;;
47225;SDS011;32965;64.142;-21.912;2022-09-09T13:28:00;2.10;;;0.80;;
47225;SDS011;32965;64.142;-21.912;2022-09-09T13:30:32;4.05;;;1.08;;
47225;SDS011;32965;64.142;-21.912;2022-09-09T13:38:27;8.23;;;1.88;;
47225;SDS011;32965;64.142;-21.912;2022-09-09T13:43:30;5.78;;;1.45;;
47225;SDS011;32965;64.142;-21.912;2022-09-09T13:45:59;11.50;;;2.00;;
47225;SDS011;32965;64.142;-21.912;2022-09-09T13:48:27;17.13;;;1.75;;
47225;SDS011;32965;64.142;-21.912;2022-09-09T13:50:59;12.68;;;1.88;;
47225;SDS011;32965;64.142;-21.912;2022-09-09T13:53:31;14.98;;;2.22;;
47225;SDS011;32965;64.142;-21.912;2022-09-09T13:55:58;10.48;;;1.92;;
47225;SDS011;32965;64.142;-21.912;2022-09-09T13:58:24;14.80;;;2.42;;
47225;SDS011;32965;64.142;-21.912;2022-09-09T14:00:51;13.80;;;2.22;;
47225;SDS011;32965;64.142;-21.912;2022-09-09T14:03:18;14.93;;;2.30;;
47225;SDS011;32965;64.142;-21.912;2022-09-09T14:05:45;7.20;;;1.38;;
47225;SDS011;32965;64.142;-21.912;2022-09-09T14:08:16;5.30;;;1.30;;
47225;SDS011;32965;64.142;-21.912;2022-09-09T14:10:48;16.33;;;2.47;;
47225;SDS011;32965;64.142;-21.912;2022-09-09T14:13:14;7.40;;;1.90;;
47225;SDS011;32965;64.142;-21.912;2022-09-09T14:15:41;8.07;;;1.58;;
47225;SDS011;32965;64.142;-21.912;2022-09-09T14:18:11;6.93;;;1.13;;
47225;SDS011;32965;64.142;-21.912;2022-09-09T14:20:39;8.15;;;1.60;;
47225;SDS011;32965;64.142;-21.912;2022-09-09T14:23:05;6.53;;;1.90;;
47225;SDS011;32965;64.142;-21.912;2022-09-09T14:25:31;6.40;;;2.10;;
47225;SDS011;32965;64.142;-21.912;2022-09-09T14:27:58;10.57;;;2.10;;
47225;SDS011;32965;64.142;-21.912;2022-09-09T14:30:24;12.43;;;2.70;;
47225;SDS011;32965;64.142;-21.912;2022-09-09T14:32:54;9.70;;;3.78;;
47225;SDS011;32965;64.142;-21.912;2022-09-09T14:35:22;13.82;;;3.45;;
47225;SDS011;32965;64.142;-21.912;2022-09-09T14:37:49;11.32;;;4.20;;
47225;SDS011;32965;64.142;-21.912;2022-09-09T14:40:16;14.98;;;5.40;;
47225;SDS011;32965;64.142;-21.912;2022-09-09T14:42:44;13.20;;;4.72;;
47225;SDS011;32965;64.142;-21.912;2022-09-09T14:45:11;11.45;;;5.13;;
47225;SDS011;32965;64.142;-21.912;2022-09-09T14:47:37;13.63;;;5.47;;
47225;SDS011;32965;64.142;-21.912;2022-09-09T14:50:03;11.25;;;4.15;;
47225;SDS011;32965;64.142;-21.912;2022-09-09T14:52:36;10.18;;;4.55;;
47225;SDS011;32965;64.142;-21.912;2022-09-09T14:55:03;9.88;;;4.88;;
47225;SDS011;32965;64.142;-21.912;2022-09-09T14:57:33;10.75;;;5.13;;
47225;SDS011;32965;64.142;-21.912;2022-09-09T15:00:04;12.68;;;3.88;;
47225;SDS011;32965;64.142;-21.912;2022-09-09T15:02:30;17.58;;;4.60;;
47225;SDS011;32965;64.142;-21.912;2022-09-09T15:05:00;12.40;;;3.85;;
47225;SDS011;32965;64.142;-21.912;2022-09-09T15:10:01;17.88;;;4.70;;
47225;SDS011;32965;64.142;-21.912;2022-09-09T15:12:28;9.13;;;3.88;;
47225;SDS011;32965;64.142;-21.912;2022-09-09T15:14:53;11.02;;;3.65;;
47225;SDS011;32965;64.142;-21.912;2022-09-09T15:19:56;3.58;;;1.58;;
47225;SDS011;32965;64.142;-21.912;2022-09-09T15:22:22;5.30;;;1.73;;
47225;SDS011;32965;64.142;-21.912;2022-09-09T15:24:49;3.97;;;1.30;;
47225;SDS011;32965;64.142;-21.912;2022-09-09T15:27:27;1.63;;;0.52;;
47225;SDS011;32965;64.142;-21.912;2022-09-09T15:29:55;2.72;;;0.45;;
47225;SDS011;32965;64.142;-21.912;2022-09-09T15:34:52;0.80;;;0.17;;
47225;SDS011;32965;64.142;-21.912;2022-09-09T15:39:48;1.15;;;0.32;;
47225;SDS011;32965;64.142;-21.912;2022-09-09T15:44:46;5.00;;;0.63;;
47225;SDS011;32965;64.142;-21.912;2022-09-09T15:47:14;2.67;;;1.00;;
47225;SDS011;32965;64.142;-21.912;2022-09-09T15:49:41;1.30;;;0.47;;
47225;SDS011;32965;64.142;-21.912;2022-09-09T15:52:08;3.25;;;0.65;;
47225;SDS011;32965;64.142;-21.912;2022-09-09T15:54:37;1.50;;;0.40;;
47225;SDS011;32965;64.142;-21.912;2022-09-09T15:57:10;0.65;;;0.40;;
47225;SDS011;32965;64.142;-21.912;2022-09-09T15:59:37;2.05;;;0.30;;
47225;SDS011;32965;64.142;-21.912;2022-09-09T16:02:04;4.97;;;1.45;;
47225;SDS011;32965;64.142;-21.912;2022-09-09T16:04:31;5.78;;;1.20;;
47225;SDS011;32965;64.142;-21.912;2022-09-09T16:07:00;6.85;;;1.50;;
47225;SDS011;32965;64.142;-21.912;2022-09-09T16:09:28;3.20;;;1.15;;
47225;SDS011;32965;64.142;-21.912;2022-09-09T16:11:58;6.90;;;1.80;;
47225;SDS011;32965;64.142;-21.912;2022-09-09T16:14:31;10.20;;;1.40;;
47225;SDS011;32965;64.142;-21.912;2022-09-09T16:22:14;1.50;;;0.60;;
47225;SDS011;32965;64.142;-21.912;2022-09-09T16:24:40;0.22;;;0.10;;
47225;SDS011;32965;64.142;-21.912;2022-09-09T16:27:06;0.15;;;0.10;;
47225;SDS011;32965;64.142;-21.912;2022-09-09T16:29:32;0.10;;;0.10;;
47225;SDS011;32965;64.142;-21.912;2022-09-09T16:31:58;0.00;;;0.00;;
47225;SDS011;32965;64.142;-21.912;2022-09-09T16:34:25;1.25;;;0.00;;
47225;SDS011;32965;64.142;-21.912;2022-09-09T16:36:51;0.70;;;0.05;;
47225;SDS011;32965;64.142;-21.912;2022-09-09T16:39:18;1.58;;;0.20;;
47225;SDS011;32965;64.142;-21.912;2022-09-09T16:41:46;2.28;;;0.10;;
47225;SDS011;32965;64.142;-21.912;2022-09-09T16:44:18;3.75;;;2.05;;
47225;SDS011;32965;64.142;-21.912;2022-09-09T16:46:44;0.45;;;0.20;;
47225;SDS011;32965;64.142;-21.912;2022-09-09T16:49:12;0.30;;;0.10;;
47225;SDS011;32965;64.142;-21.912;2022-09-09T16:51:41;2.17;;;0.30;;
47225;SDS011;32965;64.142;-21.912;2022-09-09T16:54:10;1.70;;;0.20;;
47225;SDS011;32965;64.142;-21.912;2022-09-09T16:56:37;0.10;;;0.10;;
47225;SDS011;32965;64.142;-21.912;2022-09-09T16:59:08;0.05;;;0.00;;
47225;SDS011;32965;64.142;-21.912;2022-09-09T17:04:18;0.65;;;0.30;;
47225;SDS011;32965;64.142;-21.912;2022-09-09T17:06:46;0.75;;;0.10;;
47225;SDS011;32965;64.142;-21.912;2022-09-09T17:09:14;0.08;;;0.00;;
47225;SDS011;32965;64.142;-21.912;2022-09-09T17:11:40;0.47;;;0.00;;
47225;SDS011;32965;64.142;-21.912;2022-09-09T17:14:07;0.10;;;0.00;;
47225;SDS011;32965;64.142;-21.912;2022-09-09T17:16:34;0.20;;;0.00;;
47225;SDS011;32965;64.142;-21.912;2022-09-09T17:19:01;0.00;;;0.00;;
47225;SDS011;32965;64.142;-21.912;2022-09-09T17:21:28;2.10;;;1.08;;
47225;SDS011;32965;64.142;-21.912;2022-09-09T17:23:57;0.90;;;0.43;;
47225;SDS011;32965;64.142;-21.912;2022-09-09T17:26:25;0.40;;;0.40;;
47225;SDS011;32965;64.142;-21.912;2022-09-09T17:28:53;2.17;;;0.10;;
47225;SDS011;32965;64.142;-21.912;2022-09-09T17:31:21;0.43;;;0.13;;
47225;SDS011;32965;64.142;-21.912;2022-09-09T17:33:48;0.28;;;0.08;;
47225;SDS011;32965;64.142;-21.912;2022-09-09T17:36:19;0.00;;;0.00;;
47225;SDS011;32965;64.142;-21.912;2022-09-09T17:38:45;0.00;;;0.00;;
47225;SDS011;32965;64.142;-21.912;2022-09-09T17:43:40;0.00;;;0.00;;
47225;SDS011;32965;64.142;-21.912;2022-09-09T17:46:14;1.25;;;0.13;;
47225;SDS011;32965;64.142;-21.912;2022-09-09T17:48:48;0.17;;;0.00;;
47225;SDS011;32965;64.142;-21.912;2022-09-09T17:51:16;0.28;;;0.13;;
47225;SDS011;32965;64.142;-21.912;2022-09-09T17:56:11;0.25;;;0.10;;
47225;SDS011;32965;64.142;-21.912;2022-09-09T17:58:39;0.10;;;0.10;;
47225;SDS011;32965;64.142;-21.912;2022-09-09T18:01:07;0.35;;;0.20;;
47225;SDS011;32965;64.142;-21.912;2022-09-09T18:03:36;0.00;;;0.00;;
47225;SDS011;32965;64.142;-21.912;2022-09-09T18:06:05;0.15;;;0.00;;
47225;SDS011;32965;64.142;-21.912;2022-09-09T18:08:33;0.20;;;0.10;;
47225;SDS011;32965;64.142;-21.912;2022-09-09T18:11:00;0.17;;;0.05;;
47225;SDS011;32965;64.142;-21.912;2022-09-09T18:13:29;0.35;;;0.10;;
47225;SDS011;32965;64.142;-21.912;2022-09-09T18:15:55;1.08;;;0.63;;
47225;SDS011;32965;64.142;-21.912;2022-09-09T18:18:20;1.63;;;0.70;;
47225;SDS011;32965;64.142;-21.912;2022-09-09T18:20:59;1.83;;;0.20;;
47225;SDS011;32965;64.142;-21.912;2022-09-09T18:23:27;0.45;;;0.10;;
47225;SDS011;32965;64.142;-21.912;2022-09-09T18:25:54;2.70;;;1.25;;
47225;SDS011;32965;64.142;-21.912;2022-09-09T18:28:20;0.55;;;0.43;;
47225;SDS011;32965;64.142;-21.912;2022-09-09T18:30:46;7.18;;;0.30;;
47225;SDS011;32965;64.142;-21.912;2022-09-09T18:33:13;1.48;;;0.95;;
47225;SDS011;32965;64.142;-21.912;2022-09-09T18:35:38;1.20;;;0.22;;
47225;SDS011;32965;64.142;-21.912;2022-09-09T18:38:04;1.05;;;0.35;;
47225;SDS011;32965;64.142;-21.912;2022-09-09T18:40:31;1.52;;;0.20;;
47225;SDS011;32965;64.142;-21.912;2022-09-09T18:42:57;0.30;;;0.20;;
47225;SDS011;32965;64.142;-21.912;2022-09-09T18:45:23;0.30;;;0.20;;
47225;SDS011;32965;64.142;-21.912;2022-09-09T18:47:49;0.35;;;0.10;;
47225;SDS011;32965;64.142;-21.912;2022-09-09T18:50:21;0.00;;;0.00;;
47225;SDS011;32965;64.142;-21.912;2022-09-09T18:52:47;0.20;;;0.10;;
47225;SDS011;32965;64.142;-21.912;2022-09-09T18:55:13;0.70;;;0.30;;
47225;SDS011;32965;64.142;-21.912;2022-09-09T18:57:39;1.85;;;0.20;;
47225;SDS011;32965;64.142;-21.912;2022-09-09T19:00:05;0.40;;;0.20;;
47225;SDS011;32965;64.142;-21.912;2022-09-09T19:02:34;0.20;;;0.10;;
47225;SDS011;32965;64.142;-21.912;2022-09-09T19:04:59;0.30;;;0.10;;
47225;SDS011;32965;64.142;-21.912;2022-09-09T19:07:27;1.50;;;0.82;;
47225;SDS011;32965;64.142;-21.912;2022-09-09T19:09:52;1.23;;;0.57;;
47225;SDS011;32965;64.142;-21.912;2022-09-09T19:12:18;0.43;;;0.08;;
47225;SDS011;32965;64.142;-21.912;2022-09-09T19:14:44;0.10;;;0.10;;
47225;SDS011;32965;64.142;-21.912;2022-09-09T19:17:10;0.43;;;0.22;;
47225;SDS011;32965;64.142;-21.912;2022-09-09T19:19:37;1.00;;;0.32;;
47225;SDS011;32965;64.142;-21.912;2022-09-09T19:22:07;2.10;;;0.10;;
47225;SDS011;32965;64.142;-21.912;2022-09-09T19:24:36;0.30;;;0.03;;
47225;SDS011;32965;64.142;-21.912;2022-09-09T19:27:03;1.08;;;0.00;;
47225;SDS011;32965;64.142;-21.912;2022-09-09T19:29:33;0.43;;;0.00;;
47225;SDS011;32965;64.142;-21.912;2022-09-09T19:32:00;0.20;;;0.10;;
47225;SDS011;32965;64.142;-21.912;2022-09-09T19:34:26;0.30;;;0.30;;
47225;SDS011;32965;64.142;-21.912;2022-09-09T19:36:53;0.85;;;0.10;;
47225;SDS011;32965;64.142;-21.912;2022-09-09T19:39:21;0.20;;;0.10;;
47225;SDS011;32965;64.142;-21.912;2022-09-09T19:41:48;0.20;;;0.10;;
47225;SDS011;32965;64.142;-21.912;2022-09-09T19:44:14;0.55;;;0.05;;
47225;SDS011;32965;64.142;-21.912;2022-09-09T19:46:41;0.20;;;0.10;;
47225;SDS011;32965;64.142;-21.912;2022-09-09T19:49:08;0.03;;;0.03;;
47225;SDS011;32965;64.142;-21.912;2022-09-09T19:51:34;0.03;;;0.03;;
47225;SDS011;32965;64.142;-21.912;2022-09-09T19:54:10;0.22;;;0.10;;
47225;SDS011;32965;64.142;-21.912;2022-09-09T19:56:38;1.75;;;0.10;;
47225;SDS011;32965;64.142;-21.912;2022-09-09T19:59:09;0.10;;;0.00;;
47225;SDS011;32965;64.142;-21.912;2022-09-09T20:04:08;1.63;;;0.30;;
47225;SDS011;32965;64.142;-21.912;2022-09-09T20:06:36;0.10;;;0.10;;
47225;SDS011;32965;64.142;-21.912;2022-09-09T20:09:04;4.45;;;1.83;;
47225;SDS011;32965;64.142;-21.912;2022-09-09T20:11:32;0.98;;;0.40;;
47225;SDS011;32965;64.142;-21.912;2022-09-09T20:13:58;0.22;;;0.10;;
47225;SDS011;32965;64.142;-21.912;2022-09-09T20:16:26;0.10;;;0.10;;
47225;SDS011;32965;64.142;-21.912;2022-09-09T20:18:55;0.10;;;0.10;;
47225;SDS011;32965;64.142;-21.912;2022-09-09T20:21:25;0.63;;;0.10;;
47225;SDS011;32965;64.142;-21.912;2022-09-09T20:23:53;0.30;;;0.10;;
47225;SDS011;32965;64.142;-21.912;2022-09-09T20:26:25;0.95;;;0.10;;
47225;SDS011;32965;64.142;-21.912;2022-09-09T20:31:24;0.38;;;0.00;;
47225;SDS011;32965;64.142;-21.912;2022-09-09T20:33:53;0.30;;;0.17;;
47225;SDS011;32965;64.142;-21.912;2022-09-09T20:38:54;1.48;;;0.00;;
47225;SDS011;32965;64.142;-21.912;2022-09-09T20:41:22;1.77;;;0.90;;
47225;SDS011;32965;64.142;-21.912;2022-09-09T20:44:01;0.20;;;0.20;;
47225;SDS011;32965;64.142;-21.912;2022-09-09T20:46:37;0.13;;;0.03;;
47225;SDS011;32965;64.142;-21.912;2022-09-09T20:49:05;0.10;;;0.10;;
47225;SDS011;32965;64.142;-21.912;2022-09-09T20:51:33;1.20;;;0.10;;
47225;SDS011;32965;64.142;-21.912;2022-09-09T20:56:35;0.65;;;0.30;;
47225;SDS011;32965;64.142;-21.912;2022-09-09T20:59:02;0.60;;;0.40;;
47225;SDS011;32965;64.142;-21.912;2022-09-09T21:01:29;1.77;;;0.60;;
47225;SDS011;32965;64.142;-21.912;2022-09-09T21:03:55;0.65;;;0.30;;
47225;SDS011;32965;64.142;-21.912;2022-09-09T21:06:21;0.90;;;0.20;;
47225;SDS011;32965;64.142;-21.912;2022-09-09T21:08:46;0.30;;;0.15;;
47225;SDS011;32965;64.142;-21.912;2022-09-09T21:11:13;0.30;;;0.20;;
47225;SDS011;32965;64.142;-21.912;2022-09-09T21:13:40;0.10;;;0.10;;
47225;SDS011;32965;64.142;-21.912;2022-09-09T21:16:07;0.55;;;0.10;;
47225;SDS011;32965;64.142;-21.912;2022-09-09T21:18:36;0.00;;;0.00;;
47225;SDS011;32965;64.142;-21.912;2022-09-09T21:21:04;0.67;;;0.40;;
47225;SDS011;32965;64.142;-21.912;2022-09-09T21:23:31;0.20;;;0.10;;
47225;SDS011;32965;64.142;-21.912;2022-09-09T21:25:57;0.20;;;0.10;;
47225;SDS011;32965;64.142;-21.912;2022-09-09T21:28:22;0.40;;;0.20;;
47225;SDS011;32965;64.142;-21.912;2022-09-09T21:30:50;0.70;;;0.20;;
47225;SDS011;32965;64.142;-21.912;2022-09-09T21:33:18;4.95;;;3.03;;
47225;SDS011;32965;64.142;-21.912;2022-09-09T21:35:46;0.30;;;0.17;;
47225;SDS011;32965;64.142;-21.912;2022-09-09T21:38:14;0.20;;;0.10;;
47225;SDS011;32965;64.142;-21.912;2022-09-09T21:40:41;0.00;;;0.00;;
47225;SDS011;32965;64.142;-21.912;2022-09-09T21:43:09;0.32;;;0.20;;
47225;SDS011;32965;64.142;-21.912;2022-09-09T21:45:38;0.30;;;0.15;;
47225;SDS011;32965;64.142;-21.912;2022-09-09T21:48:05;2.30;;;0.10;;
47225;SDS011;32965;64.142;-21.912;2022-09-09T21:50:37;1.63;;;0.30;;
47225;SDS011;32965;64.142;-21.912;2022-09-09T21:53:04;0.75;;;0.13;;
47225;SDS011;32965;64.142;-21.912;2022-09-09T21:55:34;0.40;;;0.20;;
47225;SDS011;32965;64.142;-21.912;2022-09-09T21:58:01;0.22;;;0.20;;
47225;SDS011;32965;64.142;-21.912;2022-09-09T22:00:28;2.63;;;0.93;;
47225;SDS011;32965;64.142;-21.912;2022-09-09T22:02:54;1.00;;;0.10;;
47225;SDS011;32965;64.142;-21.912;2022-09-09T22:05:20;0.28;;;0.28;;
47225;SDS011;32965;64.142;-21.912;2022-09-09T22:07:46;0.65;;;0.30;;
47225;SDS011;32965;64.142;-21.912;2022-09-09T22:10:12;0.30;;;0.30;;